createdAt,value
2022-12-15T05:17:41.826Z,99508.81
2022-12-15T05:20:29.401Z,99527.09
2022-12-15T05:23:17.984Z,99535.94
2022-12-15T05:26:05.104Z,99540.28
2022-12-15T05:28:52.684Z,99542.06
2022-12-15T05:31:39.370Z,99546.31
2022-12-15T05:34:07.123Z,99541.09
2022-12-15T05:36:35.040Z,99544.47
2022-12-15T05:39:04.164Z,99540.97
2022-12-15T05:41:32.477Z,99534.81
2022-12-15T05:44:01.704Z,99531.31
2022-12-15T05:46:29.859Z,99527.75
2022-12-15T05:48:58.061Z,99514.78
2022-12-15T05:51:26.025Z,99522.63
2022-12-15T05:53:54.780Z,99533.22
2022-12-15T05:56:22.731Z,99515.88
2022-12-15T05:58:50.742Z,99543.72
2022-12-15T06:01:20.250Z,99536.66
2022-12-15T06:03:48.205Z,99537.56
2022-12-15T06:06:16.574Z,99543.69
2022-12-15T06:08:44.893Z,99543.75
2022-12-15T06:11:15.737Z,99548.94
2022-12-15T06:13:45.640Z,99555.06
2022-12-15T06:16:19.764Z,99559.38
2022-12-15T06:18:54.476Z,99548.88
2022-12-15T06:21:35.787Z,99550.63
2022-12-15T06:24:08.124Z,99562.00
2022-12-15T06:26:40.261Z,99562.91
2022-12-15T06:29:12.844Z,99548.13
2022-12-15T06:31:41.829Z,99555.06
2022-12-15T06:34:15.863Z,99540.41
2022-12-15T06:36:44.339Z,99555.19
2022-12-15T06:39:15.622Z,99556.06
2022-12-15T06:41:44.075Z,99570.13
2022-12-15T06:44:16.791Z,99577.97
2022-12-15T06:46:46.968Z,99581.66
2022-12-15T06:49:15.391Z,99592.06
2022-12-15T06:51:45.246Z,99588.56
2022-12-15T06:54:13.913Z,99597.31
2022-12-15T06:56:42.651Z,99579.13
2022-12-15T06:59:12.132Z,99600.75
2022-12-15T07:01:42.149Z,99589.50
2022-12-15T07:04:14.325Z,99590.41
2022-12-15T07:06:43.308Z,99596.75
2022-12-15T07:09:17.692Z,99602.78
2022-12-15T07:11:50.700Z,99572.25
2022-12-15T07:14:23.156Z,99573.84
2022-12-15T07:16:57.692Z,99556.53
2022-12-15T07:19:26.651Z,99580.00
2022-12-15T07:22:00.081Z,99575.63
2022-12-15T07:24:30.055Z,99568.97
2022-12-15T07:26:59.087Z,99567.06
2022-12-15T07:29:29.033Z,99566.13
2022-12-15T07:32:03.974Z,99569.63
2022-12-15T07:34:32.339Z,99569.63
2022-12-15T07:37:00.588Z,99563.50
2022-12-15T07:39:28.557Z,99569.56
2022-12-15T07:41:57.864Z,99571.31
2022-12-15T07:44:26.700Z,99566.94
2022-12-15T07:46:55.581Z,99566.00
2022-12-15T07:49:23.972Z,99566.00
2022-12-15T07:51:52.046Z,99558.25
2022-12-15T07:54:20.949Z,99577.44
2022-12-15T07:56:50.360Z,99574.91
2022-12-15T07:59:19.898Z,99579.25
2022-12-15T08:01:48.155Z,99592.41
2022-12-15T08:04:17.330Z,99623.06
2022-12-15T08:06:45.965Z,99618.72
2022-12-15T08:09:14.207Z,99621.34
2022-12-15T08:11:43.335Z,99620.56
2022-12-15T08:14:16.940Z,99644.16
2022-12-15T08:16:55.829Z,99632.03
2022-12-15T08:19:25.986Z,99631.16
2022-12-15T08:21:54.507Z,99624.25
2022-12-15T08:24:24.515Z,99634.75
2022-12-15T08:26:53.424Z,99631.34
2022-12-15T08:32:12.680Z,99635.78
2022-12-15T08:34:42.697Z,99661.13
2022-12-15T08:37:12.638Z,99669.03
2022-12-15T08:39:41.336Z,99659.41
2022-12-15T08:42:11.067Z,99661.13
2022-12-15T08:44:39.125Z,99669.91
2022-12-15T08:47:08.445Z,99669.03
2022-12-15T08:49:36.575Z,99683.06
2022-12-15T08:52:04.841Z,99694.41
2022-12-15T08:54:33.485Z,99682.13
2022-12-15T08:57:04.085Z,99668.97
2022-12-15T08:59:32.737Z,99653.28
2022-12-15T09:02:02.129Z,99664.63
2022-12-15T09:04:30.804Z,99659.41
2022-12-15T09:06:59.511Z,99662.03
2022-12-15T09:09:28.286Z,99657.63
2022-12-15T09:11:56.497Z,99654.97
2022-12-15T09:14:29.083Z,99645.38
2022-12-15T09:16:57.955Z,99639.28
2022-12-15T09:19:27.105Z,99652.28
2022-12-15T09:21:56.093Z,99628.81
2022-12-15T09:24:34.035Z,99647.91
2022-12-15T09:27:03.728Z,99652.25
2022-12-15T09:29:35.304Z,99663.59
2022-12-15T09:32:08.980Z,99654.78
2022-12-15T09:34:41.720Z,99663.53
2022-12-15T09:37:09.643Z,99654.78
2022-12-15T09:39:39.616Z,99650.41
2022-12-15T09:42:27.616Z,99657.28
2022-12-15T09:45:24.081Z,99655.53
2022-12-15T09:48:10.075Z,99670.38
2022-12-15T09:50:41.599Z,99673.91
2022-12-15T09:53:29.793Z,99648.84
2022-12-15T09:56:34.570Z,99669.66
2022-12-15T09:59:46.805Z,99652.09
2022-12-15T10:02:22.113Z,99664.38
2022-12-15T10:05:01.417Z,99664.34
2022-12-15T10:07:41.052Z,99636.47
2022-12-15T10:10:27.343Z,99641.53
2022-12-15T10:13:02.501Z,99631.13
2022-12-15T10:15:41.740Z,99633.72
2022-12-15T10:19:16.449Z,99643.28
2022-12-15T10:21:44.434Z,99646.72
2022-12-15T10:24:51.741Z,99644.94
2022-12-15T10:27:17.215Z,99654.53
2022-12-15T10:30:17.556Z,99644.84
2022-12-15T10:33:21.921Z,99653.63
2022-12-15T10:35:54.452Z,99649.31
2022-12-15T10:38:22.267Z,99649.41
2022-12-15T10:41:08.925Z,99657.97
2022-12-15T10:43:43.458Z,99652.66
2022-12-15T10:46:32.350Z,99638.66
2022-12-15T10:49:23.004Z,99635.00
2022-12-15T10:52:02.935Z,99627.13
2022-12-15T10:54:37.460Z,99597.50
2022-12-15T10:57:58.353Z,99617.50
2022-12-15T11:00:32.951Z,99608.81
2022-12-15T11:03:01.961Z,99597.53
2022-12-15T11:05:32.378Z,99616.53
2022-12-15T11:08:31.278Z,99606.03
2022-12-15T11:11:19.033Z,99602.50
2022-12-15T11:14:11.750Z,99591.13
2022-12-15T11:16:50.642Z,99578.84
2022-12-15T11:19:46.400Z,99589.28
2022-12-15T11:22:42.078Z,99574.38
2022-12-15T11:25:55.064Z,99574.50
2022-12-15T11:28:41.094Z,99571.75
2022-12-15T11:31:25.213Z,99567.22
2022-12-15T11:33:56.335Z,99578.59
2022-12-15T11:37:13.138Z,99579.53
2022-12-15T11:40:15.408Z,99582.97
2022-12-15T11:43:39.254Z,99577.69
2022-12-15T11:46:54.666Z,99569.72
2022-12-15T11:49:49.790Z,99555.59
2022-12-15T11:52:22.647Z,99564.25
2022-12-15T11:55:13.938Z,99544.34
2022-12-15T11:57:52.145Z,99537.13
2022-12-15T12:00:23.833Z,99516.06
2022-12-15T12:02:56.008Z,99509.25
2022-12-15T12:05:42.688Z,99507.22
2022-12-15T12:09:21.549Z,99513.31
2022-12-15T12:12:05.188Z,99507.19
2022-12-15T12:14:45.837Z,99514.13
2022-12-15T12:17:49.556Z,99496.47
2022-12-15T12:20:54.666Z,99500.84
2022-12-15T12:23:54.397Z,99483.22
2022-12-15T12:27:12.729Z,99497.16
2022-12-15T12:29:59.449Z,99470.78
2022-12-15T12:33:21.502Z,99487.28
2022-12-15T12:36:03.307Z,99489.03
2022-12-15T12:38:41.680Z,99469.03
2022-12-15T12:41:21.817Z,99459.28
2022-12-15T12:43:58.980Z,99465.19
2022-12-15T12:46:40.558Z,99460.03
2022-12-15T12:49:42.946Z,99471.25
2022-12-15T12:52:34.915Z,99464.31
2022-12-15T12:55:26.146Z,99472.03
2022-12-15T12:57:57.028Z,99464.25
2022-12-15T13:00:32.749Z,99467.63
2022-12-15T13:03:18.720Z,99475.41
2022-12-15T13:05:50.781Z,99464.03
2022-12-15T13:08:29.429Z,99461.28
2022-12-15T13:11:53.783Z,99443.84
2022-12-15T13:14:46.599Z,99412.47
2022-12-15T13:17:39.370Z,99426.28
2022-12-15T13:20:26.718Z,99431.66
2022-12-15T13:23:20.605Z,99423.78
2022-12-15T13:25:55.825Z,99430.84
2022-12-15T13:28:37.501Z,99429.97
2022-12-15T13:31:21.869Z,99425.56
2022-12-15T13:33:50.797Z,99429.16
2022-12-15T13:36:40.534Z,99436.16
2022-12-15T13:39:18.502Z,99430.88
2022-12-15T13:42:32.509Z,99426.50
2022-12-15T13:44:52.515Z,99421.31
2022-12-15T13:47:28.730Z,99416.22
2022-12-15T13:50:30.951Z,99417.09
2022-12-15T13:53:20.201Z,99418.19
2022-12-15T13:56:39.263Z,99424.47
2022-12-15T13:59:43.435Z,99418.38
2022-12-15T14:02:38.769Z,99418.44
2022-12-15T14:05:19.725Z,99419.38
2022-12-15T14:08:03.737Z,99408.97
2022-12-15T14:10:49.041Z,99390.81
2022-12-15T14:13:37.410Z,99405.63
2022-12-15T14:16:21.497Z,99405.66
2022-12-15T14:19:17.193Z,99408.66
2022-12-15T14:21:57.837Z,99414.66
2022-12-15T14:24:40.197Z,99411.13
2022-12-15T14:27:10.446Z,99415.56
2022-12-15T14:29:39.724Z,99427.81
2022-12-15T14:32:10.698Z,99420.78
2022-12-15T14:34:42.072Z,99423.41
2022-12-15T14:37:20.258Z,99419.97
2022-12-15T15:07:19.260Z,99448.22
2022-12-15T15:09:47.890Z,99436.03
2022-12-15T15:12:25.249Z,99434.28
2022-12-15T15:15:08.620Z,99438.75
2022-12-15T15:17:43.884Z,99438.75
2022-12-15T15:20:38.436Z,99434.47
2022-12-15T15:23:19.770Z,99442.34
2022-12-15T15:26:09.995Z,99433.91
2022-12-15T15:28:41.183Z,99440.88
2022-12-15T15:31:35.268Z,99433.81
2022-12-15T15:34:11.622Z,99428.75
2022-12-15T15:36:40.695Z,99439.16
2022-12-15T15:39:16.119Z,99435.69
2022-12-15T15:41:45.232Z,99426.16
2022-12-15T15:44:16.034Z,99415.78
2022-12-15T15:46:52.821Z,99432.31
2022-12-15T15:49:24.761Z,99431.53
2022-12-15T15:51:54.897Z,99435.97
2022-12-15T15:54:28.737Z,99436.88
2022-12-15T15:56:58.676Z,99438.66
2022-12-15T15:59:29.173Z,99434.41
2022-12-15T16:01:59.395Z,99424.00
2022-12-15T16:04:29.615Z,99437.91
2022-12-15T16:07:09.310Z,99430.13
2022-12-15T16:09:40.986Z,99446.66
2022-12-15T16:12:42.789Z,99442.31
2022-12-15T16:15:20.993Z,99438.09
2022-12-15T16:17:50.222Z,99432.88
2022-12-15T16:20:21.895Z,99428.56
2022-12-15T16:23:31.718Z,99442.63
2022-12-15T16:26:03.134Z,99439.91
2022-12-15T16:28:32.222Z,99434.88
2022-12-15T16:31:01.806Z,99417.38
2022-12-15T16:33:30.071Z,99419.81
2022-12-15T16:36:00.250Z,99428.53
2022-12-15T16:38:31.757Z,99429.34
2022-12-15T16:41:31.020Z,99444.41
2022-12-15T16:43:59.599Z,99437.31
2022-12-15T16:46:28.946Z,99420.81
2022-12-15T16:49:00.040Z,99444.25
2022-12-15T16:51:42.714Z,99435.47
2022-12-15T16:54:23.660Z,99432.94
2022-12-15T16:56:56.130Z,99441.75
2022-12-15T16:59:36.243Z,99446.06
2022-12-15T17:02:28.370Z,99443.44
2022-12-15T17:04:57.579Z,99436.53
2022-12-15T17:07:30.184Z,99429.59
2022-12-15T17:09:58.931Z,99422.91
2022-12-15T17:12:27.051Z,99440.22
2022-12-15T17:14:58.156Z,99424.50
2022-12-15T17:17:28.768Z,99437.47
2022-12-15T17:22:49.187Z,99421.75
2022-12-15T17:25:46.147Z,99419.06
2022-12-15T17:28:22.178Z,99419.81
2022-12-15T17:30:52.871Z,99416.34
2022-12-15T17:33:27.990Z,99415.38
2022-12-15T17:36:03.216Z,99410.13
2022-12-15T17:38:31.694Z,99395.25
2022-12-15T17:41:02.056Z,99397.69
2022-12-15T17:43:35.860Z,99402.00
2022-12-15T17:46:04.907Z,99395.00
2022-12-15T17:48:33.857Z,99391.44
2022-12-15T17:51:02.853Z,99386.94
2022-12-15T17:53:33.173Z,99389.56
2022-12-15T17:56:03.848Z,99396.59
2022-12-15T17:58:32.106Z,99384.41
2022-12-15T18:01:00.336Z,99386.03
2022-12-15T18:03:31.950Z,99384.50
2022-12-15T18:06:00.523Z,99376.66
2022-12-15T18:08:33.289Z,99389.66
2022-12-15T18:11:03.884Z,99397.56
2022-12-15T18:13:35.670Z,99385.41
2022-12-15T18:16:04.754Z,99396.78
2022-12-15T18:18:35.320Z,99384.53
2022-12-15T18:41:28.216Z,99366.72
2022-12-15T18:43:58.976Z,99370.63
2022-12-15T18:46:28.432Z,99360.31
2022-12-15T18:48:56.912Z,99369.13
2022-12-15T18:51:30.910Z,99363.94
2022-12-15T18:54:02.753Z,99353.56
2022-12-15T18:56:30.705Z,99352.78
2022-12-15T18:59:02.180Z,99350.28
2022-12-15T19:01:30.618Z,99345.97
2022-12-15T19:04:01.956Z,99352.25
2022-12-15T19:06:43.914Z,99364.56
2022-12-15T19:09:21.806Z,99360.22
2022-12-15T19:12:19.548Z,99355.94
2022-12-15T19:14:55.022Z,99351.59
2022-12-15T19:17:43.149Z,99354.22
2022-12-15T19:20:55.570Z,99366.44
2022-12-15T19:23:23.851Z,99359.72
2022-12-15T19:25:53.185Z,99340.44
2022-12-15T19:28:24.411Z,99361.19
2022-12-15T19:30:53.376Z,99359.47
2022-12-15T19:33:21.576Z,99367.28
2022-12-15T19:35:51.594Z,99361.13
2022-12-15T19:38:27.313Z,99355.75
2022-12-15T19:40:56.390Z,99356.66
2022-12-15T19:43:25.519Z,99346.19
2022-12-15T19:45:53.944Z,99359.22
2022-12-15T19:48:24.091Z,99360.09
2022-12-15T19:50:54.637Z,99369.66
2022-12-15T19:53:27.300Z,99365.31
2022-12-15T19:55:59.007Z,99362.59
2022-12-15T19:58:33.642Z,99354.72
2022-12-15T20:01:06.945Z,99355.53
2022-12-15T20:03:36.931Z,99355.50
2022-12-15T20:06:17.477Z,99359.66
2022-12-15T20:08:52.362Z,99363.16
2022-12-15T20:11:27.056Z,99361.34
2022-12-15T20:13:56.233Z,99364.84
2022-12-15T20:16:24.873Z,99360.44
2022-12-15T20:18:56.058Z,99354.31
2022-12-15T20:21:32.363Z,99359.53
2022-12-15T20:24:07.537Z,99351.69
2022-12-15T20:26:37.589Z,99354.34
2022-12-15T20:29:12.095Z,99361.31
2022-12-15T20:31:40.653Z,99363.06
2022-12-15T20:34:08.830Z,99355.19
2022-12-15T20:36:36.957Z,99359.56
2022-12-15T20:39:10.677Z,99361.34
2022-12-15T20:41:38.943Z,99363.97
2022-12-15T20:44:13.436Z,99360.44
2022-12-15T20:46:43.135Z,99357.84
2022-12-15T20:49:20.165Z,99364.81
2022-12-15T20:51:50.005Z,99355.19
2022-12-15T20:54:21.924Z,99363.09
2022-12-15T20:56:50.656Z,99368.50
2022-12-15T20:59:19.495Z,99371.97
2022-12-15T21:01:48.339Z,99373.75
2022-12-15T21:04:29.960Z,99362.44
2022-12-15T21:06:58.797Z,99376.47
2022-12-15T21:09:26.685Z,99378.22
2022-12-15T21:11:55.142Z,99379.94
2022-12-15T21:14:25.069Z,99372.09
2022-12-15T21:16:53.433Z,99379.13
2022-12-15T21:19:22.837Z,99378.22
2022-12-15T21:21:55.575Z,99377.38
2022-12-15T21:24:27.340Z,99380.06
2022-12-15T21:26:55.930Z,99382.09
2022-12-15T21:29:28.430Z,99386.31
2022-12-15T21:31:56.419Z,99378.44
2022-12-15T21:34:24.812Z,99374.00
2022-12-15T21:36:55.283Z,99373.09
2022-12-15T21:39:35.575Z,99377.53
2022-12-15T21:42:14.305Z,99374.03
2022-12-15T21:44:43.031Z,99371.47
2022-12-15T21:47:50.400Z,99366.22
2022-12-15T21:50:20.450Z,99369.78
2022-12-15T21:52:48.833Z,99371.47
2022-12-15T21:55:18.937Z,99375.81
2022-12-15T21:57:46.891Z,99382.78
2022-12-15T22:00:18.442Z,99377.63
2022-12-15T22:02:48.894Z,99377.63
2022-12-15T22:05:20.389Z,99385.53
2022-12-15T22:07:49.625Z,99378.56
2022-12-15T22:10:18.262Z,99384.66
2022-12-15T22:12:59.041Z,99396.03
2022-12-15T22:15:29.243Z,99400.50
2022-12-15T22:17:56.991Z,99400.50
2022-12-15T22:20:25.728Z,99400.50
2022-12-15T22:22:53.533Z,99402.22
2022-12-15T22:25:25.636Z,99407.44
2022-12-15T22:27:54.781Z,99400.50
2022-12-15T22:30:26.601Z,99397.78
2022-12-15T22:32:54.707Z,99396.97
2022-12-15T22:35:25.843Z,99397.84
2022-12-15T22:37:55.248Z,99408.34
2022-12-15T22:40:38.833Z,99404.84
2022-12-15T22:43:21.750Z,99409.13
2022-12-15T22:45:53.275Z,99402.16
2022-12-15T22:48:24.385Z,99403.00
2022-12-15T22:50:52.409Z,99389.00
2022-12-15T22:53:21.068Z,99383.78
2022-12-15T22:55:51.069Z,99392.50
2022-12-15T22:58:53.560Z,99389.06
2022-12-15T23:01:21.671Z,99387.38
2022-12-15T23:03:52.143Z,99390.78
2022-12-15T23:06:20.345Z,99390.78
2022-12-15T23:08:55.853Z,99383.78
2022-12-15T23:11:37.090Z,99392.50
2022-12-15T23:14:16.609Z,99390.81
2022-12-15T23:16:46.394Z,99392.53
2022-12-15T23:19:23.909Z,99378.56
2022-12-15T23:21:52.331Z,99383.78
2022-12-15T23:24:20.289Z,99371.53
2022-12-15T23:26:49.039Z,99380.25
2022-12-15T23:29:16.983Z,99384.56
2022-12-15T23:31:44.743Z,99384.53
2022-12-15T23:34:12.685Z,99383.59
2022-12-15T23:36:40.512Z,99378.31
2022-12-15T23:39:08.488Z,99367.00
2022-12-15T23:41:36.294Z,99372.19
2022-12-15T23:44:04.004Z,99371.25
2022-12-15T23:46:31.767Z,99371.25
2022-12-15T23:48:59.936Z,99370.47
2022-12-15T23:51:27.896Z,99370.38
2022-12-15T23:53:55.630Z,99376.50
2022-12-15T23:56:25.135Z,99372.13
2022-12-15T23:58:59.275Z,99381.63
